Flight Track Log - Related Links

Times and Time Zones

All times are in EDT time to prevent confusion due to time zone crossing. See the B-18725 flight status page for this flight to view local times or setup timezone preferences in your user account.

Time Position Orientation Groundspeed Altitude Reporting Facility
EDT Latitude Longitude Course Direction KTS MPH feet Rate Location/Type
Fri 06:55:17 PM 1.3220 103.9820 198° South 164 189 1,200  Level FlightAware ADS-B
Fri 06:55:42 PM 1.3060 103.9750 204° Southwest 165 190 2,000 1,886 Climbing FlightAware ADS-B
Fri 06:55:52 PM 1.2990 103.9730 196° South 167 192 2,300 1,733 Climbing FlightAware ADS-B
Fri 06:56:27 PM 1.2780 103.9910 139° Southeast 188 216 3,300 1,400 Climbing FlightAware ADS-B
Fri 06:56:52 PM 1.2830 104.0120 77° East 211 243 3,700 1,091 Climbing FlightAware ADS-B
Fri 06:57:22 PM 1.2950 104.0420 68° East 242 278 4,300 1,200 Climbing FlightAware ADS-B
Fri 06:57:37 PM 1.3070 104.0550 47° Northeast 259 298 4,600 1,200 Climbing FlightAware ADS-B
Fri 06:57:47 PM 1.3190 104.0600 23° Northeast 268 308 4,800 1,440 Climbing FlightAware ADS-B
Fri 06:58:02 PM 1.3370 104.0630 North 278 320 5,200 2,533 Climbing FlightAware ADS-B
Fri 06:58:32 PM 1.3750 104.0530 345° North 281 323 6,700 2,836 Climbing FlightAware ADS-B
Fri 06:58:57 PM 1.4070 104.0430 343° North 286 329 7,800 2,618 Climbing FlightAware ADS-B
Fri 06:59:27 PM 1.4430 104.0310 342° North 292 336 9,100 2,400 Climbing FlightAware ADS-B
Fri 07:00:12 PM 1.5040 104.0100 341° North 312 359 10,800 1,835 Climbing FlightAware ADS-B
Fri 07:00:52 PM 1.5620 103.9900 341° North 354 407 11,700 1,425 Climbing FlightAware ADS-B
Fri 07:01:32 PM 1.6280 103.9670 341° North 394 453 12,700 2,188 Climbing FlightAware ADS-B
Fri 07:02:17 PM 1.7100 103.9370 340° North 413 475 14,800 2,965 Climbing FlightAware ADS-B
Fri 07:02:57 PM 1.7820 103.9120 341° North 423 487 16,900 2,965 Climbing FlightAware ADS-B
Fri 07:03:42 PM 1.8700 103.9010 353° North 436 502 19,000 2,682 Climbing FlightAware ADS-B
Fri 07:04:22 PM 1.9520 103.8970 357° North 445 512 20,700 2,475 Climbing FlightAware ADS-B
Fri 07:05:02 PM 2.0340 103.8930 357° North 456 525 22,300 2,329 Climbing FlightAware ADS-B
Fri 07:05:47 PM 2.1350 103.8870 357° North 470 541 24,000 2,118 Climbing FlightAware ADS-B
Fri 07:06:27 PM 2.2220 103.8820 357° North 481 554 25,300 1,765 Climbing FlightAware ADS-B
Fri 07:07:12 PM 2.3230 103.8760 357° North 485 558 26,500 1,835 Climbing FlightAware ADS-B
Fri 07:07:52 PM 2.4100 103.8600 350° North 493 567 27,900 1,875 Climbing FlightAware ADS-B
Fri 07:08:32 PM 2.4970 103.8240 338° Northwest 503 579 29,000 1,482 Climbing FlightAware ADS-B
Fri 07:09:17 PM 2.5960 103.7790 336° Northwest 510 587 30,000 1,553 Climbing FlightAware ADS-B
Fri 07:09:57 PM 2.6750 103.7430 336° Northwest 508 585 31,200 1,263 Climbing FlightAware ADS-B
Fri 07:10:52 PM 2.7910 103.6890 335° Northwest 503 579 32,000 480 Climbing FlightAware ADS-B
Fri 07:11:37 PM 2.8690 103.6550 336° Northwest 479 551 32,000 525 Level FlightAware ADS-B
Fri 07:12:12 PM 2.9440 103.6210 336° Northwest 480 552 32,700 1,341 Climbing FlightAware ADS-B
Fri 07:13:02 PM 3.0400 103.5780 336° Northwest 484 557 33,900 1,467 Climbing FlightAware ADS-B
Fri 07:13:42 PM 3.1250 103.5400 336° Northwest 486 559 34,900 1,400 Climbing FlightAware ADS-B
Fri 07:14:32 PM 3.2220 103.4960 336° Northwest 486 559 36,000 1,371 Climbing FlightAware ADS-B
Fri 07:15:27 PM 3.3400 103.4430 336° Northwest 483 556 37,300 1,200 Climbing FlightAware ADS-B
Fri 07:16:12 PM 3.4320 103.4030 337° Northwest 483 556 38,000 467 Climbing FlightAware ADS-B
Fri 07:16:57 PM 3.5160 103.3670 337° Northwest 483 556 38,000  Level FlightAware ADS-B
Fri 07:17:37 PM 3.5860 103.3370 337° Northwest 483 556 38,000  Level FlightAware ADS-B
Fri 07:18:17 PM 3.7090 103.2940 341° North 38,000  Level FlightAware ADS-B
Fri 07:19:02 PM 3.8000 103.2580 338° Northwest 486 559 38,000  Level FlightAware ADS-B
Fri 07:19:47 PM 3.8810 103.2260 338° Northwest 484 557 38,000  Level FlightAware ADS-B
Fri 07:20:27 PM 3.9670 103.1910 338° Northwest 486 559 38,000  Level FlightAware ADS-B
Fri 07:21:07 PM 4.0570 103.1550 338° Northwest 487 560 38,000  Level FlightAware ADS-B
Fri 07:21:52 PM 4.1420 103.1220 339° North 489 563 38,000  Level FlightAware ADS-B
Fri 07:22:32 PM 4.2500 103.0790 338° Northwest 490 564 38,000  Level FlightAware ADS-B
Fri 07:23:12 PM 4.3350 103.0450 338° Northwest 490 564 38,000  Level FlightAware ADS-B
Fri 07:23:57 PM 4.4300 103.0070 338° Northwest 490 564 38,000  Level FlightAware ADS-B
Fri 07:24:42 PM 4.5260 102.9690 338° Northwest 489 563 38,000  Level FlightAware ADS-B
Fri 07:25:22 PM 4.6090 102.9360 338° Northwest 490 564 38,000  Level FlightAware ADS-B
Fri 07:26:02 PM 4.6940 102.9020 338° Northwest 489 563 38,000  Level FlightAware ADS-B
Fri 07:26:47 PM 4.7900 102.8630 338° Northwest 489 563 38,000  Level FlightAware ADS-B
Fri 07:27:32 PM 4.8620 102.8350 339° North 487 560 38,000  Level FlightAware ADS-B
Fri 07:28:32 PM 4.9920 102.7830 338° Northwest 38,000  Level FlightAware ADS-B
Fri 07:29:22 PM 5.1120 102.7350 338° Northwest 485 558 38,000  Level FlightAware ADS-B
Fri 07:30:02 PM 5.1970 102.7010 338° Northwest 482 555 38,000  Level FlightAware ADS-B
Fri 07:30:37 PM 5.2710 102.6720 339° North 481 554 38,000  Level FlightAware ADS-B
Fri 07:31:27 PM 5.3730 102.6300 338° Northwest 481 554 38,000  Level FlightAware ADS-B
Fri 07:32:02 PM 5.4410 102.6040 339° North 480 552 38,000  Level FlightAware ADS-B
Fri 07:32:42 PM 5.5310 102.5670 338° Northwest 480 552 38,000  Level FlightAware ADS-B
Fri 07:34:17 PM 5.7240 102.4900 338° Northwest 481 554 38,000  Level FlightAware ADS-B
Fri 07:34:57 PM 5.7940 102.4620 338° Northwest 481 554 38,000  Level FlightAware ADS-B
Fri 07:35:37 PM 5.8850 102.4260 339° North 481 554 38,000  Level FlightAware ADS-B
Fri 07:36:22 PM 5.9850 102.3850 338° Northwest 479 551 38,000  Level FlightAware ADS-B
Fri 07:37:02 PM 6.0540 102.3560 337° Northwest 480 552 38,000  Level FlightAware ADS-B
Fri 07:37:47 PM 6.1540 102.3170 339° North 483 556 38,000  Level FlightAware ADS-B
Fri 07:38:27 PM 6.2400 102.2830 339° North 483 556 38,000  Level FlightAware ADS-B
Fri 07:39:07 PM 6.3230 102.2510 339° North 484 557 38,000  Level FlightAware ADS-B
Fri 07:39:52 PM 6.4130 102.2060 334° Northwest 484 557 38,000  Level FlightAware ADS-B
Fri 07:40:32 PM 6.4900 102.1600 329° Northwest 485 558 38,000  Level FlightAware ADS-B
Fri 07:41:42 PM 6.6260 102.0840 331° Northwest 484 557 38,000  Level FlightAware ADS-B
Fri 07:42:22 PM 6.7160 102.0740 354° North 481 554 38,000  Level FlightAware ADS-B
Fri 07:43:07 PM 6.8140 102.0670 356° North 485 558 38,000  Level FlightAware ADS-B
Fri 07:43:47 PM 6.9040 102.0570 354° North 485 558 38,000  Level FlightAware ADS-B
Fri 07:44:27 PM 6.9960 102.0470 354° North 486 559 38,000  Level FlightAware ADS-B
Fri 07:45:07 PM 7.0720 102.0370 353° North 486 559 38,000  Level FlightAware ADS-B
Fri 07:45:47 PM 7.1480 102.0280 353° North 486 559 38,000  Level FlightAware ADS-B
Fri 07:46:27 PM 7.2240 102.0180 353° North 486 559 38,000  Level FlightAware ADS-B
Fri 07:47:17 PM 7.3190 102.0070 353° North 486 559 38,000  Level FlightAware ADS-B
Fri 07:47:57 PM 7.3950 101.9970 353° North 486 559 38,000  Level FlightAware ADS-B
Fri 07:48:37 PM 7.4710 101.9880 353° North 486 559 38,000  Level FlightAware ADS-B
Fri 07:49:17 PM 7.5460 101.9780 352° North 486 559 38,000  Level FlightAware ADS-B
Fri 07:50:07 PM 7.6410 101.9670 353° North 486 559 38,000  Level FlightAware ADS-B
Fri 07:50:47 PM 7.7170 101.9570 353° North 486 559 38,000  Level FlightAware ADS-B
Fri 07:51:27 PM 7.7930 101.9480 353° North 486 559 38,000  Level FlightAware ADS-B
Fri 07:52:07 PM 7.8690 101.9380 353° North 486 559 38,000  Level FlightAware ADS-B
Fri 07:52:47 PM 7.9450 101.9290 353° North 486 559 38,000  Level FlightAware ADS-B
Fri 07:53:37 PM 8.0400 101.9170 353° North 486 559 38,000  Level FlightAware ADS-B
Fri 07:56:00 PM 8.3105 101.8618 349° North  Level Estimated
Fri 07:57:00 PM 8.4240 101.8387 349° North  Level Estimated
Fri 07:58:00 PM 8.5375 101.8155 349° North  Level Estimated
Fri 07:59:00 PM 8.6510 101.7923 349° North  Level Estimated
Fri 08:00:00 PM 8.7645 101.7691 349° North  Level Estimated
Fri 08:01:00 PM 8.8780 101.7459 349° North  Level Estimated
Fri 08:02:00 PM 8.9915 101.7227 349° North  Level Estimated
Fri 08:03:00 PM 9.1050 101.6994 349° North  Level Estimated
Fri 08:04:00 PM 9.2185 101.6762 349° North  Level Estimated
Fri 08:05:00 PM 9.3320 101.6529 349° North  Level Estimated
Fri 08:06:00 PM 9.4455 101.6296 349° North  Level Estimated
Fri 08:07:00 PM 9.5590 101.6063 349° North  Level Estimated
Fri 08:08:00 PM 9.6725 101.5830 349° North  Level Estimated
Fri 08:09:00 PM 9.7859 101.5596 349° North  Level Estimated
Fri 08:10:00 PM 9.8994 101.5363 349° North  Level Estimated
Fri 08:11:00 PM 10.0129 101.5129 349° North  Level Estimated
Fri 08:11:32 PM 10.6550 101.7330 349° North 482 555 38,000  Level FlightAware ADS-B
Fri 08:12:12 PM 10.7300 101.7170 348° North 482 555 38,000  Level FlightAware ADS-B
Fri 08:12:47 PM 10.8280 101.6960 348° North 480 552 38,000  Level FlightAware ADS-B
Fri 08:13:32 PM 10.9100 101.6770 347° North 480 552 38,000  Level FlightAware ADS-B
Fri 08:14:22 PM 11.0270 101.6510 348° North 481 554 38,000  Level FlightAware ADS-B
Fri 08:14:57 PM 11.1040 101.6340 348° North 481 554 38,000  Level FlightAware ADS-B
Fri 08:15:47 PM 11.2140 101.6100 348° North 481 554 38,000  Level FlightAware ADS-B
Fri 08:16:32 PM 11.3090 101.5880 347° North 482 555 38,000  Level FlightAware ADS-B
Fri 08:17:32 PM 11.4430 101.5590 348° North 481 554 38,000  Level FlightAware ADS-B
Fri 08:18:12 PM 11.5310 101.5390 347° North 480 552 38,000  Level FlightAware ADS-B
Fri 08:18:47 PM 11.6080 101.5220 348° North 480 552 38,000  Level FlightAware ADS-B
Fri 08:19:32 PM 11.6930 101.5020 347° North 480 552 38,000  Level FlightAware ADS-B
Fri 08:20:12 PM 11.7880 101.4810 348° North 482 555 38,000 -600 Level FlightAware ADS-B
Fri 08:21:12 PM 11.9230 101.4510 348° North 472 543 37,000 -1,200 Descending FlightAware ADS-B
Fri 08:21:57 PM 12.0300 101.4270 348° North 478 550 35,900 -1,694 Descending FlightAware ADS-B
Fri 08:22:37 PM 12.1090 101.4090 347° North 476 548 34,600 -2,080 Descending FlightAware ADS-B
Fri 08:23:12 PM 12.1890 101.3920 348° North 470 541 33,300 -2,188 Descending FlightAware ADS-B
Fri 08:24:02 PM 12.2920 101.3680 347° North 461 531 31,500 -2,200 Descending FlightAware ADS-B
Fri 08:24:42 PM 12.3750 101.3500 348° North 453 521 30,000 -2,250 Descending FlightAware ADS-B
Fri 08:25:22 PM 12.4600 101.3300 347° North 445 512 28,500 -2,118 Descending FlightAware ADS-B
Fri 08:26:07 PM 12.5470 101.3110 348° North 437 503 27,000 -2,025 Descending FlightAware ADS-B
Fri 08:26:42 PM 12.6100 101.2970 348° North 432 497 25,800 -2,118 Descending FlightAware ADS-B
Fri 08:27:32 PM 12.7110 101.2740 347° North 425 489 24,000 -2,040 Descending FlightAware ADS-B
Fri 08:28:22 PM 12.8010 101.2540 348° North 418 481 22,400 -1,980 Descending FlightAware ADS-B
Fri 08:29:12 PM 12.8950 101.2320 347° North 407 468 20,700 -2,000 Descending FlightAware ADS-B
Fri 08:29:52 PM 12.9660 101.2160 348° North 402 463 19,400 -1,950 Descending FlightAware ADS-B
Fri 08:30:32 PM 13.0390 101.2000 348° North 396 456 18,100 -1,765 Descending FlightAware ADS-B
Fri 08:31:17 PM 13.1190 101.1770 344° North 379 436 16,900 -1,624 Descending FlightAware ADS-B
Fri 08:31:57 PM 13.1860 101.1530 341° North 372 428 15,800 -1,642 Descending FlightAware ADS-B
Fri 08:32:52 PM 13.2710 101.1220 340° North 364 419 14,300 -1,560 Descending FlightAware ADS-B
Fri 08:33:37 PM 13.3400 101.0960 340° North 357 411 13,200 -1,980 Descending FlightAware ADS-B
Fri 08:34:32 PM 13.4290 101.0630 340° North 347 399 11,000 -1,895 Descending FlightAware ADS-B
Fri 08:35:12 PM 13.4860 101.0410 339° North 314 361 10,200 -1,200 Descending FlightAware ADS-B
Fri 08:35:42 PM 13.5260 101.0260 340° North 291 335 9,600 -1,200 Descending FlightAware ADS-B
Fri 08:36:07 PM 13.5540 101.0150 339° North 291 335 9,100 -600 Descending FlightAware ADS-B
Fri 08:36:52 PM 13.6110 100.9940 340° North 278 320 8,900 -686 Descending FlightAware ADS-B
Fri 08:37:17 PM 13.6410 100.9820 339° North 278 320 8,300 -1,560 Descending FlightAware ADS-B
Fri 08:37:42 PM 13.6740 100.9700 341° North 281 323 7,600 -1,600 Descending FlightAware ADS-B
Fri 08:38:17 PM 13.7150 100.9550 340° North 276 318 6,700 -1,680 Descending FlightAware ADS-B
Fri 08:38:57 PM 13.7610 100.9370 339° North 271 312 5,500 -1,714 Descending FlightAware ADS-B
Fri 08:39:27 PM 13.7970 100.9240 341° North 263 303 4,700 -1,091 Descending FlightAware ADS-B
Fri 08:39:52 PM 13.8230 100.9140 340° North 248 285 4,500 -800 Descending FlightAware ADS-B
Fri 08:40:12 PM 13.8470 100.9050 340° North 236 272 4,100 -533 Descending FlightAware ADS-B
Fri 08:40:37 PM 13.8670 100.8930 330° Northwest 218 251 4,100 -150 Level FlightAware ADS-B
Fri 08:40:52 PM 13.8740 100.8810 301° West 203 234 4,000 -1,050 Descending FlightAware ADS-B
Fri 08:41:17 PM 13.8810 100.8550 286° West 202 232 3,400 -1,418 Descending FlightAware ADS-B
Fri 08:41:47 PM 13.8870 100.8280 283° West 203 234 2,700 -1,467 Descending FlightAware ADS-B
Fri 08:42:02 PM 13.8860 100.8150 265° West 199 229 2,300 -1,500 Descending FlightAware ADS-B
Fri 08:42:07 PM 13.8810 100.8080 234° Southwest 196 226 2,200 -480 Descending FlightAware ADS-B
Fri 08:42:27 PM 13.8700 100.7990 218° Southwest 194 223 2,100 -120 Descending FlightAware ADS-B
Fri 08:42:57 PM 13.8460 100.7830 213° Southwest 192 221 2,100 109 Level FlightAware ADS-B
Fri 08:43:22 PM 13.8280 100.7760 201° Southwest 172 198 2,200  Climbing FlightAware ADS-B
Fri 08:43:42 PM 13.8110 100.7710 196° South 161 185 2,100 -554 Descending FlightAware ADS-B
Fri 08:44:27 PM 13.7780 100.7630 193° South 156 180 1,600 -750 Descending FlightAware ADS-B
Fri 08:45:02 PM 13.7540 100.7560 196° South 156 180 1,100 -800 Descending FlightAware ADS-B
Fri 08:45:27 PM 13.7370 100.7520 193° South 163 188 800 -873 Descending FlightAware ADS-B
Fri 08:45:57 PM 13.7120 100.7450 195° South 164 189 300 -462 Descending FlightAware ADS-B
Fri 08:46:32 PM 13.6930 100.7400 194° South 163 188 300  Level FlightAware ADS-B
Fri 08:49:00 PM 13.6811 100.7473 149° Southeast  Level Estimated
Fri 08:50:00 PM 13.6811 100.7473 124° Southeast  Level Estimated
Fri 08:51:00 PM 13.6811 100.7473 124° Southeast  Level Estimated
Fri 08:52:00 PM 13.6811 100.7473 124° Southeast  Level Estimated
Fri 08:53:00 PM 13.6811 100.7473 124° Southeast  Level Estimated
Fri 08:54:00 PM 13.6811 100.7473 124° Southeast  Level Estimated
Fri 08:55:00 PM 13.6811 100.7473 124° Southeast  Level Estimated
Fri 08:56:00 PM 13.6811 100.7473 124° Southeast  Level Estimated
Fri 08:57:00 PM 13.6811 100.7473 124° Southeast  Level Estimated
Fri 08:58:00 PM 13.6811 100.7473 124° Southeast  Level Estimated
Fri 08:59:00 PM 13.6811 100.7473 124° Southeast  Level Estimated
Fri 09:00:00 PM 13.6811 100.7473 124° Southeast  Level Estimated
Fri 09:01:00 PM 13.6811 100.7473 124° Southeast  Level Estimated

Login

Don't have an account? Register now (free) for customized features, flight alerts, and more!